Latest Weather Observations for Lucinda

IDQ60801

Issued at 9:02 pm EST Saturday 25 February 2017 (issued every 30 minutes, with the page automatically refreshed every 10 minutes)

About weather observations | Map of weather stations | Latest weather observations for QLD | Other Formats
Station Details ID: 032141 Name: LUCINDA POINT Lat: -18.52 Lon: 146.39 Height: 10.0 m
Data from the previous 72 hours. | See also: Recent months at Lucinda
Date/Time
EST
Temp
°C
App
Temp
°C
Dew
Point
°C
Rel
Hum
%
Delta-T
°C
Wind Press
QNH
hPa
Press
MSL
hPa
Rain since
9am
mm
Dir  Spd
km/h
Gust
km/h
Spd
kts
Gust
kts
25/09:00pm 28.8 30.5 22.3 68 4.4 ESE 17 30 9 16 1010.4 1010.2 0.0
25/08:30pm 28.7 30.7 22.2 68 4.4 ESE 15 26 8 14 1010.1 1010.0 1.8
25/08:00pm 28.7 30.6 22.0 67 4.5 SE 15 24 8 13 1009.9 1009.8 1.8
25/07:30pm 28.8 31.1 22.1 67 4.5 ESE 13 20 7 11 1009.8 1009.7 1.8
25/07:00pm 28.9 30.5 21.4 64 5.0 ESE 15 24 8 13 1009.6 1009.5 1.8
25/06:30pm 29.0 30.0 21.0 62 5.3 SE 17 26 9 14 1009.5 1009.4 1.8
25/06:00pm 29.0 29.7 21.5 64 5.0 ESE 20 26 11 14 1009.3 1009.2 1.8
25/05:30pm 29.3 29.7 21.0 61 5.5 ESE 20 28 11 15 1009.0 1008.9 1.8
25/05:00pm 30.5 31.5 21.0 57 6.4 ESE 17 24 9 13 1009.0 1008.9 1.8
25/04:30pm 30.3 31.9 21.4 59 6.0 ESE 15 24 8 13 1009.1 1009.0 1.8
25/04:00pm 30.0 31.3 21.7 61 5.6 SE 17 28 9 15 1009.0 1008.9 1.8
25/03:30pm 29.9 31.5 22.1 63 5.3 ESE 17 26 9 14 1009.1 1009.0 1.8
25/03:00pm 29.8 30.7 21.5 61 5.6 SE 19 28 10 15 1009.2 1009.1 1.8
25/02:30pm 29.8 31.9 22.5 65 5.0 SE 15 26 8 14 1009.4 1009.3 1.8
25/02:00pm 29.5 31.5 23.0 68 4.5 SE 17 26 9 14 1009.9 1009.8 1.8
25/01:30pm 29.1 31.3 22.6 68 4.4 SE 15 30 8 16 1010.1 1010.0 1.8
25/01:00pm 28.9 31.8 23.1 71 4.0 SE 13 24 7 13 1010.5 1010.4 1.8
25/12:30pm 28.2 30.0 23.3 75 3.4 S 19 24 10 13 1010.6 1010.5 1.8
25/12:00pm 27.2 28.3 23.7 81 2.4 S 24 28 13 15 1011.1 1011.0 1.8
25/11:30am 26.3 30.1 24.0 87 1.6 S 11 15 6 8 1011.7 1011.6 1.8
25/11:00am 24.9 26.9 23.0 89 1.3 ESE 17 48 9 26 1012.1 1012.0 1.4
25/10:46am 26.3 24.1 22.8 81 2.4 SSE 39 61 21 33 1011.7 1011.6 0.2
25/10:30am 27.1 26.7 24.0 83 2.1 SSW 33 39 18 21 1011.8 1011.7 0.0
25/10:00am 26.7 27.8 24.4 87 1.6 S 26 32 14 17 1012.2 1012.1 0.0
25/09:30am 27.0 27.3 24.3 85 1.9 S 30 35 16 19 1012.2 1012.1 0.0
25/09:00am 26.2 26.3 24.6 91 1.1 S 32 41 17 22 1012.2 1012.1 15.0
25/08:30am 25.4 27.2 23.5 89 1.3 WSW 20 26 11 14 1012.2 1012.1 13.0
25/08:00am 25.8 28.9 24.2 91 1.1 SW 15 20 8 11 1011.9 1011.8 13.0
25/07:30am 25.3 27.2 23.5 90 1.2 WSW 19 20 10 11 1011.9 1011.8 13.0
25/07:00am 26.5 29.6 24.2 87 1.6 SW 15 20 8 11 1011.4 1011.3 13.0
25/06:30am 25.6 27.7 23.8 90 1.2 SW 19 24 10 13 1011.1 1011.0 13.0
25/06:00am 26.8 31.2 24.5 87 1.6 N 9 15 5 8 1010.9 1010.8 13.0
25/05:30am 25.6 27.5 23.7 89 1.3 WSW 20 24 11 13 1010.6 1010.5 11.4
25/05:00am 26.4 30.0 24.4 89 1.4 WNW 13 20 7 11 1010.4 1010.3 11.4
25/04:30am 25.4 27.6 24.0 92 1.0 WSW 19 24 10 13 1010.3 1010.2 11.4
25/04:00am 25.1 25.2 23.9 93 0.8 SW 30 33 16 18 1010.1 1010.0 11.4
25/03:30am 25.0 25.6 23.4 91 1.1 SW 26 30 14 16 1010.1 1010.0 11.4
25/03:00am 25.0 25.2 23.4 91 1.1 WSW 28 33 15 18 1010.1 1010.0 11.4
25/02:30am 25.6 27.5 23.8 90 1.2 SW 20 26 11 14 1010.2 1010.1 11.4
25/02:00am 27.8 31.8 23.8 79 2.8 SSE 9 19 5 10 1010.6 1010.5 11.4
25/01:30am 28.0 31.5 23.6 77 3.0 S 11 19 6 10 1010.8 1010.7 11.4
25/01:00am 27.4 30.9 22.8 76 3.1 SSE 9 20 5 11 1011.3 1011.2 11.4
25/12:30am 27.3 28.7 22.5 75 3.2 SE 19 33 10 18 1011.2 1011.1 11.4
25/12:17am 28.5 29.0 23.9 76 3.2 ESE 28 39 15 21 1011.1 1011.0 11.4
25/12:00am 28.6 32.3 24.6 79 2.8 E 13 20 7 11 1011.4 1011.3 11.4
 
Date/Time
EST
Temp
°C
App
Temp
°C
Dew
Point
°C
Rel
Hum
%
Delta-T
°C
Wind Press
QNH
hPa
Press
MSL
hPa
Rain since
9am
mm
Dir  Spd
km/h
Gust
km/h
Spd
kts
Gust
kts
24/11:30pm 28.0 30.0 23.6 77 3.0 E 19 30 10 16 1011.7 1011.6 11.4
24/11:00pm 28.8 32.6 24.1 76 3.3 SE 11 19 6 10 1011.9 1011.8 11.4
24/10:30pm 28.9 31.4 23.8 74 3.5 ESE 17 22 9 12 1012.2 1012.1 11.4
24/10:00pm 28.8 31.6 23.7 74 3.5 SE 15 22 8 12 1012.2 1012.1 11.4
24/09:30pm 28.8 32.0 23.7 74 3.5 ESE 13 20 7 11 1012.0 1011.9 11.4
24/09:00pm 28.8 32.1 23.9 75 3.4 SE 13 24 7 13 1011.9 1011.8 11.4
24/08:30pm 28.7 31.6 23.8 75 3.4 ESE 15 24 8 13 1011.8 1011.7 11.4
24/08:00pm 28.8 31.2 23.7 74 3.5 SE 17 26 9 14 1011.5 1011.4 11.4
24/07:30pm 28.8 31.7 23.9 75 3.4 SE 15 26 8 14 1011.3 1011.2 11.4
24/07:00pm 28.9 30.9 23.6 73 3.7 SE 19 32 10 17 1010.9 1010.8 11.4
24/06:30pm 28.9 30.8 23.8 74 3.5 ESE 20 35 11 19 1010.6 1010.5 11.4
24/06:00pm 29.1 31.7 24.0 74 3.5 SE 17 32 9 17 1010.4 1010.3 11.4
24/05:30pm 29.4 31.7 24.5 75 3.4 SE 20 33 11 18 1010.2 1010.1 11.4
24/05:00pm 29.4 31.9 23.8 72 3.9 SE 17 28 9 15 1010.0 1009.9 11.4
24/04:30pm 29.3 32.0 24.2 74 3.5 SE 17 28 9 15 1009.9 1009.8 11.4
24/04:00pm 29.5 32.4 24.4 74 3.6 SE 17 26 9 14 1009.8 1009.7 11.4
24/03:30pm 29.7 32.1 23.6 69 4.2 ESE 17 26 9 14 1010.1 1010.0 11.4
24/03:00pm 29.6 32.3 24.2 73 3.8 SE 17 24 9 13 1010.3 1010.2 11.2
24/02:30pm 29.2 32.0 24.3 75 3.4 SE 17 28 9 15 1010.9 1010.8 11.2
24/02:00pm 29.0 32.4 24.1 75 3.4 SSE 13 22 7 12 1011.2 1011.1 11.2
24/01:30pm 28.9 31.5 24.0 75 3.4 SE 17 28 9 15 1011.7 1011.6 11.2
24/01:00pm 27.8 31.4 25.0 85 2.0 ESE 15 26 8 14 1011.9 1011.8 11.2
24/12:30pm 26.4 27.6 23.9 86 1.7 ESE 24 37 13 20 1012.4 1012.3 11.2
24/12:00pm 27.7 31.8 24.5 83 2.2 W 11 13 6 7 1012.7 1012.6 9.2
24/11:30am 26.7 30.3 24.4 87 1.6 E 13 20 7 11 1013.0 1012.9 9.2
24/11:00am 26.0 27.5 23.1 84 2.0 ESE 20 30 11 16 1013.4 1013.3 8.0
24/10:41am 26.2 27.1 23.3 84 2.0 ESE 24 41 13 22 1013.4 1013.3 7.6
24/10:30am 26.8 30.6 24.1 85 1.9 SE 11 17 6 9 1013.5 1013.4 7.4
24/10:00am 26.3 29.6 23.8 86 1.7 SE 13 28 7 15 1013.8 1013.7 6.0
24/09:30am 26.1 28.5 24.3 90 1.2 SSE 19 32 10 17 1013.8 1013.7 4.0
24/09:00am 26.5 28.7 24.3 88 1.5 SSE 20 32 11 17 1013.6 1013.5 8.4
24/08:30am 28.4 31.4 24.6 80 2.6 S 17 28 9 15 1013.2 1013.1 7.6
24/08:00am 29.1 31.8 24.2 75 3.4 SE 17 28 9 15 1013.1 1013.0 7.6
24/07:30am 29.1 32.0 24.4 76 3.3 SE 17 33 9 18 1012.8 1012.7 7.6
24/07:00am 28.9 31.6 24.2 76 3.3 ESE 17 30 9 16 1012.1 1012.0 7.6
24/06:30am 28.7 31.3 24.0 76 3.3 SE 17 28 9 15 1012.1 1012.0 7.6
24/06:00am 28.7 30.9 24.0 76 3.3 ESE 19 32 10 17 1012.0 1011.9 7.6
24/05:30am 28.8 30.8 23.9 75 3.4 SE 20 30 11 16 1012.1 1012.0 7.6
24/05:00am 28.6 31.2 23.9 75 3.2 SE 17 30 9 16 1011.6 1011.5 7.6
24/04:30am 28.6 30.8 23.9 75 3.2 ESE 19 33 10 18 1011.5 1011.4 7.6
24/04:00am 28.7 31.1 23.6 74 3.5 SE 17 30 9 16 1011.7 1011.6 7.6
24/03:30am 28.7 30.3 23.8 75 3.4 ESE 22 35 12 19 1011.6 1011.5 7.6
24/03:00am 28.4 31.9 24.2 78 2.9 SE 13 28 7 15 1011.7 1011.6 7.6
24/02:30am 28.5 31.4 24.5 79 2.8 SE 17 30 9 16 1011.8 1011.7 7.6
24/02:00am 28.6 32.2 24.4 78 2.9 SSE 13 24 7 13 1012.3 1012.2 7.6
24/01:30am 28.5 31.6 24.1 77 3.0 SE 15 26 8 14 1013.0 1012.9 7.6
24/01:00am 28.5 31.7 24.3 78 2.9 SE 15 24 8 13 1013.3 1013.2 7.6
24/12:30am 27.7 30.0 24.5 83 2.2 SE 20 33 11 18 1013.3 1013.2 7.6
24/12:00am 26.2 27.1 22.7 81 2.4 SSE 22 48 12 26 1013.5 1013.4 7.2
 
Date/Time
EST
Temp
°C
App
Temp
°C
Dew
Point
°C
Rel
Hum
%
Delta-T
°C
Wind Press
QNH
hPa
Press
MSL
hPa
Rain since
9am
mm
Dir  Spd
km/h
Gust
km/h
Spd
kts
Gust
kts
23/11:30pm 28.8 30.9 24.1 76 3.3 SE 20 33 11 18 1013.5 1013.4 6.0
23/11:00pm 28.9 31.8 24.5 77 3.1 SSE 17 30 9 16 1013.6 1013.5 6.0
23/10:30pm 28.9 32.0 24.2 76 3.3 SSE 15 26 8 14 1013.9 1013.8 6.0
23/10:00pm 28.5 30.7 23.2 73 3.6 SSE 17 28 9 15 1013.8 1013.7 6.0
23/09:30pm 29.0 30.6 23.9 74 3.5 SE 22 32 12 17 1013.7 1013.6 6.0
23/09:00pm 28.9 31.4 23.8 74 3.5 SE 17 28 9 15 1013.5 1013.4 6.0
23/08:30pm 28.9 31.4 23.8 74 3.5 SE 17 24 9 13 1013.1 1013.0 6.0
23/08:00pm 29.0 31.1 24.1 75 3.4 SE 20 35 11 19 1012.7 1012.6 6.0
23/07:30pm 29.0 31.2 23.9 74 3.5 ESE 19 32 10 17 1012.4 1012.3 6.0
23/07:00pm 28.9 31.1 24.0 75 3.4 SE 19 32 10 17 1012.2 1012.1 6.0
23/06:30pm 29.0 31.2 24.3 76 3.3 SE 20 33 11 18 1011.9 1011.8 6.0
23/06:00pm 29.0 31.2 24.3 76 3.3 SE 20 33 11 18 1011.7 1011.6 6.0
23/05:30pm 29.4 31.1 23.4 70 4.1 SE 20 39 11 21 1011.2 1011.1 6.0
23/05:00pm 29.4 30.3 24.0 72 3.7 SE 26 39 14 21 1010.9 1010.8 6.0
23/04:30pm 29.4 30.0 23.4 70 4.1 ESE 26 43 14 23 1010.8 1010.7 6.0
23/04:00pm 29.4 30.5 23.6 71 4.0 SE 24 35 13 19 1011.1 1011.0 6.0
23/03:30pm 29.5 30.4 22.7 67 4.6 SE 22 39 12 21 1011.4 1011.3 6.0
23/03:00pm 29.8 32.1 23.5 69 4.3 SE 17 30 9 16 1011.4 1011.3 6.0
23/02:30pm 29.4 30.8 23.6 71 4.0 SE 22 32 12 17 1011.6 1011.5 6.0
23/02:00pm 29.5 31.7 23.2 69 4.3 SE 17 32 9 17 1012.0 1011.9 6.0
23/01:30pm 29.0 30.8 23.2 71 4.0 SSE 19 32 10 17 1012.2 1012.1 6.0
23/01:00pm 29.4 31.4 23.6 71 4.0 SE 19 33 10 18 1012.5 1012.4 6.0
23/12:30pm 28.7 30.3 23.8 75 3.4 S 22 28 12 15 1012.9 1012.8 6.0
23/12:00pm 26.5 30.4 24.2 87 1.6 SSW 11 17 6 9 1013.4 1013.3 5.8
23/11:30am 26.0 28.4 23.7 87 1.6 S 17 20 9 11 1013.8 1013.7 5.8
23/11:00am 28.2 29.6 24.2 79 2.8 S 24 30 13 16 1014.0 1013.9 0.0
23/10:30am 27.8 29.0 23.8 79 2.8 S 24 32 13 17 1014.0 1013.9 0.0
23/10:00am 27.6 28.7 23.6 79 2.7 SSW 24 32 13 17 1014.2 1014.1 0.0
23/09:30am 26.8 27.3 23.3 81 2.4 SSW 26 33 14 18 1014.3 1014.2 0.0
23/09:00am 28.3 31.0 22.8 72 3.7 S 13 20 7 11 1014.1 1014.0 0.0
23/08:30am 26.6 29.5 24.4 88 1.5 SW 17 22 9 12 1014.3 1014.2 0.0
23/08:00am 25.6 26.9 24.0 91 1.1 SW 24 28 13 15 1013.9 1013.8 0.0
23/07:30am 25.3 26.9 23.9 92 1.0 WSW 22 26 12 14 1013.4 1013.3 0.0
23/07:00am 24.8 25.4 23.4 92 1.0 WSW 26 30 14 16 1013.2 1013.1 0.0
23/06:30am 25.5 27.4 23.7 90 1.2 WSW 20 24 11 13 1012.9 1012.8 0.0
23/06:00am 26.2 29.2 24.6 91 1.1 SSW 17 20 9 11 1012.7 1012.6 0.0
23/05:30am 24.9 26.4 23.7 93 0.8 SW 22 28 12 15 1012.4 1012.3 0.0
23/05:00am 24.5 25.4 23.3 93 0.8 SW 24 28 13 15 1012.3 1012.2 0.0
23/04:30am 24.7 24.9 23.5 93 0.8 SW 28 33 15 18 1012.1 1012.0 0.0
23/04:00am 24.7 25.3 23.5 93 0.8 SW 26 30 14 16 1011.9 1011.8 0.0
23/03:30am 25.1 26.7 23.3 90 1.2 WSW 20 24 11 13 1011.8 1011.7 0.0
23/03:00am 25.3 26.5 23.9 92 1.0 WSW 24 26 13 14 1011.8 1011.7 0.0
23/02:30am 25.4 25.1 23.3 88 1.4 WSW 30 33 16 18 1012.2 1012.1 0.0
23/02:00am 28.7 31.2 23.1 71 3.8 ESE 15 20 8 11 1012.4 1012.3 0.0
23/01:30am 28.8 30.4 22.8 70 4.1 ESE 19 26 10 14 1012.8 1012.7 0.0
23/01:00am 28.8 30.3 23.0 71 4.0 E 20 28 11 15 1013.0 1012.9 0.0
23/12:30am 28.8 29.6 22.5 68 4.3 E 22 28 12 15 1013.0 1012.9 0.0
23/12:00am 28.6 30.9 23.5 74 3.5 E 17 26 9 14 1013.3 1013.2 0.0
 
Date/Time
EST
Temp
°C
App
Temp
°C
Dew
Point
°C
Rel
Hum
%
Delta-T
°C
Wind Press
QNH
hPa
Press
MSL
hPa
Rain since
9am
mm
Dir  Spd
km/h
Gust
km/h
Spd
kts
Gust
kts
22/11:30pm 28.8 29.9 23.7 74 3.5 ESE 24 35 13 19 1013.3 1013.2 0.0
22/11:00pm 28.6 30.5 23.5 74 3.5 E 19 35 10 19 1013.5 1013.4 0.0
22/10:30pm 29.0 30.6 23.2 71 4.0 E 20 30 11 16 1013.7 1013.6 0.0
22/10:00pm 29.0 31.3 23.4 72 3.8 E 17 26 9 14 1013.5 1013.4 0.0
22/09:30pm 28.9 30.9 23.6 73 3.6 E 19 28 10 15 1012.9 1012.8 0.0

Other Formats:

Comma delimited format used in spreadsheet applications
http://www.bom.gov.au/fwo/IDQ60801/IDQ60801.94295.axf

JavaScript Object Notation format (JSON) in row-major order
http://www.bom.gov.au/fwo/IDQ60801/IDQ60801.94295.json